sensor_id;sensor_type;location;lat;lon;timestamp;P1;durP1;ratioP1;P2;durP2;ratioP2
14708;SDS011;7445;50.774;4.944;2022-12-18T08:40:15;17.50;;;14.93;;
14708;SDS011;7445;50.774;4.944;2022-12-18T08:42:41;21.10;;;17.03;;
14708;SDS011;7445;50.774;4.944;2022-12-18T08:45:25;16.70;;;14.93;;
14708;SDS011;7445;50.774;4.944;2022-12-18T08:47:51;17.27;;;14.90;;
14708;SDS011;7445;50.774;4.944;2022-12-18T08:50:17;19.83;;;14.93;;
14708;SDS011;7445;50.774;4.944;2022-12-18T08:52:42;20.40;;;15.80;;
14708;SDS011;7445;50.774;4.944;2022-12-18T08:55:08;29.57;;;18.93;;
14708;SDS011;7445;50.774;4.944;2022-12-18T08:57:35;22.40;;;15.97;;
14708;SDS011;7445;50.774;4.944;2022-12-18T09:00:00;21.57;;;16.50;;
14708;SDS011;7445;50.774;4.944;2022-12-18T09:02:26;22.63;;;17.37;;
14708;SDS011;7445;50.774;4.944;2022-12-18T09:04:51;26.70;;;18.23;;
14708;SDS011;7445;50.774;4.944;2022-12-18T09:07:17;23.80;;;17.23;;
14708;SDS011;7445;50.774;4.944;2022-12-18T09:09:43;22.13;;;15.10;;
14708;SDS011;7445;50.774;4.944;2022-12-18T09:12:09;21.50;;;15.23;;
14708;SDS011;7445;50.774;4.944;2022-12-18T09:14:35;21.40;;;16.33;;
14708;SDS011;7445;50.774;4.944;2022-12-18T09:17:01;22.70;;;15.37;;
14708;SDS011;7445;50.774;4.944;2022-12-18T09:19:26;21.07;;;15.03;;
14708;SDS011;7445;50.774;4.944;2022-12-18T09:21:52;18.40;;;15.47;;
14708;SDS011;7445;50.774;4.944;2022-12-18T09:24:18;18.07;;;13.83;;
14708;SDS011;7445;50.774;4.944;2022-12-18T09:26:44;17.20;;;13.23;;
14708;SDS011;7445;50.774;4.944;2022-12-18T09:29:09;16.80;;;13.53;;
14708;SDS011;7445;50.774;4.944;2022-12-18T09:31:36;16.70;;;13.30;;
14708;SDS011;7445;50.774;4.944;2022-12-18T09:34:03;18.03;;;14.67;;
14708;SDS011;7445;50.774;4.944;2022-12-18T09:36:28;20.30;;;14.60;;
14708;SDS011;7445;50.774;4.944;2022-12-18T09:38:54;23.17;;;14.57;;
14708;SDS011;7445;50.774;4.944;2022-12-18T09:44:15;20.00;;;15.47;;
14708;SDS011;7445;50.774;4.944;2022-12-18T09:46:44;22.77;;;14.90;;
14708;SDS011;7445;50.774;4.944;2022-12-18T09:49:30;19.77;;;15.73;;
14708;SDS011;7445;50.774;4.944;2022-12-18T09:52:02;24.60;;;17.07;;
14708;SDS011;7445;50.774;4.944;2022-12-18T09:54:41;19.50;;;15.47;;
14708;SDS011;7445;50.774;4.944;2022-12-18T09:57:13;18.57;;;14.73;;
14708;SDS011;7445;50.774;4.944;2022-12-18T09:59:46;21.47;;;14.77;;
14708;SDS011;7445;50.774;4.944;2022-12-18T10:02:34;19.50;;;15.97;;
14708;SDS011;7445;50.774;4.944;2022-12-18T10:07:41;25.80;;;20.37;;
14708;SDS011;7445;50.774;4.944;2022-12-18T10:10:13;25.60;;;19.97;;
14708;SDS011;7445;50.774;4.944;2022-12-18T10:15:27;27.80;;;22.00;;
14708;SDS011;7445;50.774;4.944;2022-12-18T10:25:53;25.47;;;18.10;;
14708;SDS011;7445;50.774;4.944;2022-12-18T10:28:31;21.97;;;16.33;;
14708;SDS011;7445;50.774;4.944;2022-12-18T10:31:02;21.00;;;17.63;;
14708;SDS011;7445;50.774;4.944;2022-12-18T10:33:39;24.40;;;19.10;;
14708;SDS011;7445;50.774;4.944;2022-12-18T10:36:12;24.53;;;18.83;;
14708;SDS011;7445;50.774;4.944;2022-12-18T10:38:38;24.27;;;19.10;;
14708;SDS011;7445;50.774;4.944;2022-12-18T10:43:48;23.03;;;17.63;;
14708;SDS011;7445;50.774;4.944;2022-12-18T10:46:33;28.00;;;19.67;;
14708;SDS011;7445;50.774;4.944;2022-12-18T10:48:59;27.00;;;18.43;;
14708;SDS011;7445;50.774;4.944;2022-12-18T10:51:29;22.80;;;18.00;;
14708;SDS011;7445;50.774;4.944;2022-12-18T10:54:01;24.90;;;18.83;;
14708;SDS011;7445;50.774;4.944;2022-12-18T10:56:34;20.93;;;17.83;;
14708;SDS011;7445;50.774;4.944;2022-12-18T10:59:11;26.40;;;19.03;;
14708;SDS011;7445;50.774;4.944;2022-12-18T11:01:51;30.33;;;21.33;;
14708;SDS011;7445;50.774;4.944;2022-12-18T11:04:24;25.73;;;20.23;;
14708;SDS011;7445;50.774;4.944;2022-12-18T11:06:53;28.47;;;21.37;;
14708;SDS011;7445;50.774;4.944;2022-12-18T11:09:20;26.13;;;19.60;;
14708;SDS011;7445;50.774;4.944;2022-12-18T11:11:48;26.30;;;19.60;;
14708;SDS011;7445;50.774;4.944;2022-12-18T11:14:18;24.33;;;20.20;;
14708;SDS011;7445;50.774;4.944;2022-12-18T11:16:50;27.13;;;20.00;;
14708;SDS011;7445;50.774;4.944;2022-12-18T11:19:33;21.63;;;16.13;;
14708;SDS011;7445;50.774;4.944;2022-12-18T11:22:01;23.53;;;18.63;;
14708;SDS011;7445;50.774;4.944;2022-12-18T11:24:52;23.37;;;18.63;;
14708;SDS011;7445;50.774;4.944;2022-12-18T11:27:20;27.87;;;20.33;;
14708;SDS011;7445;50.774;4.944;2022-12-18T11:29:46;25.10;;;20.80;;
14708;SDS011;7445;50.774;4.944;2022-12-18T11:37:35;28.23;;;19.47;;
14708;SDS011;7445;50.774;4.944;2022-12-18T11:40:11;28.90;;;20.00;;
14708;SDS011;7445;50.774;4.944;2022-12-18T11:42:44;30.43;;;19.27;;
14708;SDS011;7445;50.774;4.944;2022-12-18T11:48:13;23.40;;;18.90;;
14708;SDS011;7445;50.774;4.944;2022-12-18T11:50:51;25.27;;;19.10;;
14708;SDS011;7445;50.774;4.944;2022-12-18T11:53:21;25.10;;;19.33;;
14708;SDS011;7445;50.774;4.944;2022-12-18T12:01:31;21.80;;;17.80;;
14708;SDS011;7445;50.774;4.944;2022-12-18T12:07:07;23.23;;;19.57;;
14708;SDS011;7445;50.774;4.944;2022-12-18T12:21:17;25.73;;;20.03;;
14708;SDS011;7445;50.774;4.944;2022-12-18T12:26:33;26.20;;;18.73;;
14708;SDS011;7445;50.774;4.944;2022-12-18T12:31:57;22.23;;;19.33;;
14708;SDS011;7445;50.774;4.944;2022-12-18T12:40:12;21.03;;;17.93;;
14708;SDS011;7445;50.774;4.944;2022-12-18T12:42:44;27.57;;;20.27;;
14708;SDS011;7445;50.774;4.944;2022-12-18T12:45:38;25.10;;;19.03;;
14708;SDS011;7445;50.774;4.944;2022-12-18T12:48:16;25.80;;;19.37;;
14708;SDS011;7445;50.774;4.944;2022-12-18T12:50:51;24.33;;;18.27;;
14708;SDS011;7445;50.774;4.944;2022-12-18T12:53:23;43.43;;;29.23;;
14708;SDS011;7445;50.774;4.944;2022-12-18T12:55:54;32.13;;;23.93;;
14708;SDS011;7445;50.774;4.944;2022-12-18T12:58:25;28.42;;;25.45;;
14708;SDS011;7445;50.774;4.944;2022-12-18T13:01:21;26.80;;;21.20;;
14708;SDS011;7445;50.774;4.944;2022-12-18T13:04:03;22.27;;;18.30;;
14708;SDS011;7445;50.774;4.944;2022-12-18T13:09:19;21.90;;;17.83;;
14708;SDS011;7445;50.774;4.944;2022-12-18T13:11:45;22.93;;;19.10;;
14708;SDS011;7445;50.774;4.944;2022-12-18T13:17:17;23.03;;;19.10;;
14708;SDS011;7445;50.774;4.944;2022-12-18T13:20:04;26.33;;;18.67;;
14708;SDS011;7445;50.774;4.944;2022-12-18T13:22:35;19.93;;;17.00;;
14708;SDS011;7445;50.774;4.944;2022-12-18T13:28:12;20.37;;;15.63;;
14708;SDS011;7445;50.774;4.944;2022-12-18T13:36:00;28.53;;;19.30;;
14708;SDS011;7445;50.774;4.944;2022-12-18T13:39:26;24.47;;;18.47;;
14708;SDS011;7445;50.774;4.944;2022-12-18T13:47:04;25.33;;;18.60;;
14708;SDS011;7445;50.774;4.944;2022-12-18T13:49:49;25.03;;;17.77;;
14708;SDS011;7445;50.774;4.944;2022-12-18T13:52:19;23.80;;;18.00;;
14708;SDS011;7445;50.774;4.944;2022-12-18T13:54:50;25.43;;;18.73;;
14708;SDS011;7445;50.774;4.944;2022-12-18T13:57:28;26.53;;;19.30;;
14708;SDS011;7445;50.774;4.944;2022-12-18T13:59:56;28.47;;;18.33;;
14708;SDS011;7445;50.774;4.944;2022-12-18T14:02:26;27.27;;;21.63;;
14708;SDS011;7445;50.774;4.944;2022-12-18T14:04:53;29.83;;;20.30;;
14708;SDS011;7445;50.774;4.944;2022-12-18T14:07:21;26.17;;;19.77;;
14708;SDS011;7445;50.774;4.944;2022-12-18T14:09:49;28.90;;;20.70;;
14708;SDS011;7445;50.774;4.944;2022-12-18T14:12:21;26.67;;;20.33;;
14708;SDS011;7445;50.774;4.944;2022-12-18T14:18:13;27.57;;;20.27;;
14708;SDS011;7445;50.774;4.944;2022-12-18T14:20:56;28.37;;;20.90;;
14708;SDS011;7445;50.774;4.944;2022-12-18T14:23:45;27.23;;;20.70;;
14708;SDS011;7445;50.774;4.944;2022-12-18T14:26:26;31.60;;;21.93;;
14708;SDS011;7445;50.774;4.944;2022-12-18T14:28:55;29.33;;;20.67;;
14708;SDS011;7445;50.774;4.944;2022-12-18T14:31:29;29.70;;;20.97;;
14708;SDS011;7445;50.774;4.944;2022-12-18T14:33:56;26.90;;;20.23;;
14708;SDS011;7445;50.774;4.944;2022-12-18T14:36:23;36.07;;;24.77;;
14708;SDS011;7445;50.774;4.944;2022-12-18T14:38:51;30.00;;;21.67;;
14708;SDS011;7445;50.774;4.944;2022-12-18T14:41:20;28.17;;;20.70;;
14708;SDS011;7445;50.774;4.944;2022-12-18T14:43:47;33.53;;;22.70;;
14708;SDS011;7445;50.774;4.944;2022-12-18T14:51:54;33.13;;;21.40;;
14708;SDS011;7445;50.774;4.944;2022-12-18T14:54:22;29.13;;;21.50;;
14708;SDS011;7445;50.774;4.944;2022-12-18T14:56:50;27.97;;;22.23;;
14708;SDS011;7445;50.774;4.944;2022-12-18T14:59:23;31.10;;;22.37;;
14708;SDS011;7445;50.774;4.944;2022-12-18T15:04:37;29.00;;;21.30;;
14708;SDS011;7445;50.774;4.944;2022-12-18T15:07:18;32.03;;;20.60;;
14708;SDS011;7445;50.774;4.944;2022-12-18T15:10:07;27.87;;;21.27;;
14708;SDS011;7445;50.774;4.944;2022-12-18T15:12:39;35.00;;;23.00;;
14708;SDS011;7445;50.774;4.944;2022-12-18T15:18:13;28.17;;;21.17;;
14708;SDS011;7445;50.774;4.944;2022-12-18T15:20:55;28.93;;;21.50;;
14708;SDS011;7445;50.774;4.944;2022-12-18T15:26:08;34.40;;;23.03;;
14708;SDS011;7445;50.774;4.944;2022-12-18T15:28:36;30.20;;;20.37;;
14708;SDS011;7445;50.774;4.944;2022-12-18T15:33:42;29.50;;;21.60;;
14708;SDS011;7445;50.774;4.944;2022-12-18T15:37:09;34.60;;;22.87;;
14708;SDS011;7445;50.774;4.944;2022-12-18T15:39:35;30.50;;;22.20;;
14708;SDS011;7445;50.774;4.944;2022-12-18T15:42:03;31.73;;;21.57;;
14708;SDS011;7445;50.774;4.944;2022-12-18T15:44:51;30.93;;;21.17;;
14708;SDS011;7445;50.774;4.944;2022-12-18T15:47:17;35.43;;;22.43;;
14708;SDS011;7445;50.774;4.944;2022-12-18T15:49:47;34.77;;;24.47;;
14708;SDS011;7445;50.774;4.944;2022-12-18T15:52:14;29.37;;;22.07;;
14708;SDS011;7445;50.774;4.944;2022-12-18T15:54:50;37.27;;;25.27;;
14708;SDS011;7445;50.774;4.944;2022-12-18T16:02:48;29.23;;;22.77;;
14708;SDS011;7445;50.774;4.944;2022-12-18T16:05:16;32.67;;;22.83;;
14708;SDS011;7445;50.774;4.944;2022-12-18T16:07:44;33.93;;;24.27;;
14708;SDS011;7445;50.774;4.944;2022-12-18T16:12:52;31.23;;;22.43;;
14708;SDS011;7445;50.774;4.944;2022-12-18T16:15:21;36.03;;;24.47;;
14708;SDS011;7445;50.774;4.944;2022-12-18T16:19:01;36.17;;;23.40;;
14708;SDS011;7445;50.774;4.944;2022-12-18T17:02:10;36.73;;;23.57;;
14708;SDS011;7445;50.774;4.944;2022-12-18T17:05:29;33.63;;;22.23;;
14708;SDS011;7445;50.774;4.944;2022-12-18T17:11:02;33.87;;;22.03;;
14708;SDS011;7445;50.774;4.944;2022-12-18T17:13:51;34.07;;;22.93;;
14708;SDS011;7445;50.774;4.944;2022-12-18T17:16:43;31.90;;;22.40;;
14708;SDS011;7445;50.774;4.944;2022-12-18T17:19:56;32.70;;;21.87;;
14708;SDS011;7445;50.774;4.944;2022-12-18T17:22:45;33.37;;;22.67;;
14708;SDS011;7445;50.774;4.944;2022-12-18T17:25:14;35.20;;;22.93;;
14708;SDS011;7445;50.774;4.944;2022-12-18T17:27:42;32.87;;;22.57;;
14708;SDS011;7445;50.774;4.944;2022-12-18T17:30:56;34.30;;;22.43;;
14708;SDS011;7445;50.774;4.944;2022-12-18T17:33:22;35.33;;;23.13;;
14708;SDS011;7445;50.774;4.944;2022-12-18T17:36:44;33.17;;;24.03;;
14708;SDS011;7445;50.774;4.944;2022-12-18T17:40:19;32.93;;;22.00;;
14708;SDS011;7445;50.774;4.944;2022-12-18T17:46:02;28.90;;;21.73;;
14708;SDS011;7445;50.774;4.944;2022-12-18T17:49:15;35.97;;;24.40;;
14708;SDS011;7445;50.774;4.944;2022-12-18T17:51:56;37.77;;;22.43;;
14708;SDS011;7445;50.774;4.944;2022-12-18T17:54:27;31.37;;;22.87;;
14708;SDS011;7445;50.774;4.944;2022-12-18T18:20:51;38.00;;;26.67;;
14708;SDS011;7445;50.774;4.944;2022-12-18T18:29:22;35.43;;;23.47;;
14708;SDS011;7445;50.774;4.944;2022-12-18T18:32:08;36.57;;;24.37;;
14708;SDS011;7445;50.774;4.944;2022-12-18T18:40:24;38.73;;;25.13;;
14708;SDS011;7445;50.774;4.944;2022-12-18T18:43:07;72.43;;;56.60;;
14708;SDS011;7445;50.774;4.944;2022-12-18T18:45:35;41.00;;;28.10;;
14708;SDS011;7445;50.774;4.944;2022-12-18T18:48:22;41.83;;;26.63;;
14708;SDS011;7445;50.774;4.944;2022-12-18T18:51:11;35.57;;;24.07;;
14708;SDS011;7445;50.774;4.944;2022-12-18T18:53:50;37.03;;;28.95;;
14708;SDS011;7445;50.774;4.944;2022-12-18T18:56:21;40.50;;;26.13;;
14708;SDS011;7445;50.774;4.944;2022-12-18T18:58:48;35.70;;;24.40;;
14708;SDS011;7445;50.774;4.944;2022-12-18T19:01:35;36.63;;;25.97;;
14708;SDS011;7445;50.774;4.944;2022-12-18T19:04:15;37.63;;;26.10;;
14708;SDS011;7445;50.774;4.944;2022-12-18T19:06:41;40.20;;;27.17;;
14708;SDS011;7445;50.774;4.944;2022-12-18T19:09:08;36.73;;;23.83;;
14708;SDS011;7445;50.774;4.944;2022-12-18T19:12:33;33.00;;;23.97;;
14708;SDS011;7445;50.774;4.944;2022-12-18T19:16:16;35.40;;;22.97;;
14708;SDS011;7445;50.774;4.944;2022-12-18T19:19:33;31.60;;;22.17;;
14708;SDS011;7445;50.774;4.944;2022-12-18T19:23:14;34.10;;;22.80;;
14708;SDS011;7445;50.774;4.944;2022-12-18T19:25:40;35.23;;;23.87;;
14708;SDS011;7445;50.774;4.944;2022-12-18T19:29:11;37.97;;;26.37;;
14708;SDS011;7445;50.774;4.944;2022-12-18T19:34:57;42.83;;;26.83;;
14708;SDS011;7445;50.774;4.944;2022-12-18T19:38:40;35.40;;;23.33;;
14708;SDS011;7445;50.774;4.944;2022-12-18T19:41:45;36.47;;;24.40;;
14708;SDS011;7445;50.774;4.944;2022-12-18T19:44:41;39.00;;;24.97;;
14708;SDS011;7445;50.774;4.944;2022-12-18T19:48:05;39.03;;;25.00;;
14708;SDS011;7445;50.774;4.944;2022-12-18T19:51:03;38.90;;;25.30;;
14708;SDS011;7445;50.774;4.944;2022-12-18T19:53:37;34.93;;;23.17;;
14708;SDS011;7445;50.774;4.944;2022-12-18T19:58:54;40.33;;;24.23;;
14708;SDS011;7445;50.774;4.944;2022-12-18T20:01:23;40.43;;;24.27;;
14708;SDS011;7445;50.774;4.944;2022-12-18T20:03:53;37.13;;;25.40;;
14708;SDS011;7445;50.774;4.944;2022-12-18T20:08:49;35.43;;;25.60;;
14708;SDS011;7445;50.774;4.944;2022-12-18T20:11:24;41.37;;;26.10;;
14708;SDS011;7445;50.774;4.944;2022-12-18T20:13:56;34.10;;;23.57;;
14708;SDS011;7445;50.774;4.944;2022-12-18T20:16:22;37.87;;;24.93;;
14708;SDS011;7445;50.774;4.944;2022-12-18T20:18:50;38.37;;;23.70;;
14708;SDS011;7445;50.774;4.944;2022-12-18T20:21:15;37.97;;;23.77;;
14708;SDS011;7445;50.774;4.944;2022-12-18T20:24:14;39.70;;;26.40;;
14708;SDS011;7445;50.774;4.944;2022-12-18T20:26:58;39.27;;;26.03;;
14708;SDS011;7445;50.774;4.944;2022-12-18T20:29:23;39.00;;;24.97;;
14708;SDS011;7445;50.774;4.944;2022-12-18T20:31:50;41.15;;;29.00;;
14708;SDS011;7445;50.774;4.944;2022-12-18T20:34:23;41.70;;;28.17;;
14708;SDS011;7445;50.774;4.944;2022-12-18T20:36:51;36.73;;;23.90;;
14708;SDS011;7445;50.774;4.944;2022-12-18T20:39:16;38.30;;;26.17;;
14708;SDS011;7445;50.774;4.944;2022-12-18T20:42:14;42.27;;;27.40;;
14708;SDS011;7445;50.774;4.944;2022-12-18T20:45:14;46.33;;;26.40;;
14708;SDS011;7445;50.774;4.944;2022-12-18T20:48:08;34.37;;;24.90;;
14708;SDS011;7445;50.774;4.944;2022-12-18T20:51:36;40.80;;;26.83;;
14708;SDS011;7445;50.774;4.944;2022-12-18T20:54:07;37.10;;;26.20;;
14708;SDS011;7445;50.774;4.944;2022-12-18T20:56:32;37.83;;;24.07;;
14708;SDS011;7445;50.774;4.944;2022-12-18T20:59:37;38.67;;;24.37;;
14708;SDS011;7445;50.774;4.944;2022-12-18T21:03:03;41.93;;;24.57;;
14708;SDS011;7445;50.774;4.944;2022-12-18T21:06:28;36.93;;;24.13;;
14708;SDS011;7445;50.774;4.944;2022-12-18T21:09:07;35.87;;;23.47;;
14708;SDS011;7445;50.774;4.944;2022-12-18T21:12:12;39.97;;;27.23;;
14708;SDS011;7445;50.774;4.944;2022-12-18T21:15:12;43.97;;;25.87;;
14708;SDS011;7445;50.774;4.944;2022-12-18T21:20:33;46.97;;;26.13;;
14708;SDS011;7445;50.774;4.944;2022-12-18T21:23:33;39.83;;;25.20;;
14708;SDS011;7445;50.774;4.944;2022-12-18T21:26:32;36.73;;;23.00;;
14708;SDS011;7445;50.774;4.944;2022-12-18T21:31:58;39.03;;;26.63;;
14708;SDS011;7445;50.774;4.944;2022-12-18T21:35:13;40.37;;;25.87;;
14708;SDS011;7445;50.774;4.944;2022-12-18T21:38:10;37.20;;;24.67;;
14708;SDS011;7445;50.774;4.944;2022-12-18T21:40:57;39.73;;;24.73;;
14708;SDS011;7445;50.774;4.944;2022-12-18T21:44:09;36.40;;;24.20;;
14708;SDS011;7445;50.774;4.944;2022-12-18T21:47:16;37.57;;;24.83;;
14708;SDS011;7445;50.774;4.944;2022-12-18T21:50:25;41.97;;;25.83;;
14708;SDS011;7445;50.774;4.944;2022-12-18T21:52:50;44.43;;;26.43;;
14708;SDS011;7445;50.774;4.944;2022-12-18T21:55:16;41.03;;;26.60;;
14708;SDS011;7445;50.774;4.944;2022-12-18T21:57:52;43.13;;;26.90;;
14708;SDS011;7445;50.774;4.944;2022-12-18T22:00:31;37.90;;;24.40;;
14708;SDS011;7445;50.774;4.944;2022-12-18T22:03:00;38.83;;;24.53;;
14708;SDS011;7445;50.774;4.944;2022-12-18T22:05:25;40.07;;;24.73;;
14708;SDS011;7445;50.774;4.944;2022-12-18T22:07:51;36.30;;;23.97;;
14708;SDS011;7445;50.774;4.944;2022-12-18T22:10:41;39.57;;;23.73;;
